createdAt,value
2017-12-14T00:01:59.400Z,0.50
2017-12-14T00:04:26.248Z,0.90
2017-12-14T00:06:53.085Z,0.60
2017-12-14T00:09:20.249Z,0.70
2017-12-14T00:11:47.004Z,0.83
2017-12-14T00:14:13.806Z,0.60
2017-12-14T00:16:40.638Z,0.90
2017-12-14T00:19:07.386Z,1.00
2017-12-14T00:21:34.201Z,0.67
2017-12-14T00:24:01.011Z,0.67
2017-12-14T00:26:27.762Z,0.90
2017-12-14T00:28:54.717Z,0.80
2017-12-14T00:31:21.504Z,0.70
2017-12-14T00:33:48.349Z,0.80
2017-12-14T00:36:15.198Z,0.90
2017-12-14T00:38:42.051Z,0.90
2017-12-14T00:41:08.806Z,1.00
2017-12-14T00:43:35.606Z,1.27
2017-12-14T00:46:02.464Z,1.00
2017-12-14T00:48:29.254Z,0.87
2017-12-14T00:50:56.014Z,0.80
2017-12-14T00:53:22.831Z,1.10
2017-12-14T00:55:49.784Z,1.80
2017-12-14T00:58:16.620Z,1.30
2017-12-14T01:00:43.603Z,1.47
2017-12-14T01:03:10.417Z,1.20
2017-12-14T01:05:37.217Z,1.07
2017-12-14T01:08:04.107Z,1.07
2017-12-14T01:10:30.937Z,0.90
2017-12-14T01:12:57.747Z,0.90
2017-12-14T01:15:24.617Z,1.20
2017-12-14T01:17:51.415Z,0.87
2017-12-14T01:20:18.277Z,1.17
2017-12-14T01:22:45.107Z,0.90
2017-12-14T01:25:11.978Z,1.10
2017-12-14T01:27:38.790Z,0.80
2017-12-14T01:30:05.654Z,0.90
2017-12-14T01:32:32.446Z,0.90
2017-12-14T01:34:59.284Z,0.90
2017-12-14T01:37:26.224Z,0.70
2017-12-14T01:39:53.001Z,0.60
2017-12-14T01:42:19.795Z,0.87
2017-12-14T01:44:46.632Z,0.83
2017-12-14T01:47:13.378Z,0.90
2017-12-14T01:49:40.219Z,0.97
2017-12-14T01:52:06.975Z,0.70
2017-12-14T01:54:33.805Z,0.53
2017-12-14T01:57:00.698Z,0.70
2017-12-14T01:59:27.454Z,0.57
2017-12-14T02:01:54.265Z,0.97
2017-12-14T02:04:21.039Z,0.67
2017-12-14T02:06:47.853Z,0.70
2017-12-14T02:09:14.755Z,0.70
2017-12-14T02:11:41.597Z,0.77
2017-12-14T02:14:08.347Z,0.73
2017-12-14T02:16:35.142Z,0.70
2017-12-14T02:19:01.937Z,0.90
2017-12-14T02:21:28.771Z,0.90
2017-12-14T02:23:55.666Z,0.90
2017-12-14T02:26:22.459Z,0.60
2017-12-14T02:28:49.266Z,0.60
2017-12-14T02:31:16.104Z,0.77
2017-12-14T02:33:42.866Z,0.80
2017-12-14T02:36:09.712Z,0.90
2017-12-14T02:38:36.640Z,0.90
2017-12-14T02:41:03.506Z,0.70
2017-12-14T02:43:30.358Z,0.90
2017-12-14T02:45:57.178Z,0.97
2017-12-14T02:48:23.975Z,0.80
2017-12-14T02:50:50.823Z,0.80
2017-12-14T02:53:17.578Z,0.90
2017-12-14T02:55:44.382Z,0.80
2017-12-14T02:58:11.138Z,0.60
2017-12-14T03:00:38.210Z,1.03
2017-12-14T03:03:05.050Z,0.63
2017-12-14T03:05:31.839Z,1.00
2017-12-14T03:07:58.718Z,1.00
2017-12-14T03:10:25.466Z,0.67
2017-12-14T03:12:52.248Z,0.63
2017-12-14T03:15:19.026Z,0.53
2017-12-14T03:17:46.331Z,0.90
2017-12-14T03:20:13.208Z,0.93
2017-12-14T03:22:40.066Z,0.80
2017-12-14T03:25:06.862Z,0.90
2017-12-14T03:27:34.163Z,0.60
2017-12-14T03:30:00.955Z,0.73
2017-12-14T03:32:27.881Z,0.80
2017-12-14T03:34:54.707Z,0.80
2017-12-14T03:37:21.572Z,0.77
2017-12-14T03:39:48.371Z,0.60
2017-12-14T03:42:15.192Z,1.00
2017-12-14T03:44:42.034Z,0.80
2017-12-14T03:47:08.856Z,0.70
2017-12-14T03:49:35.689Z,0.97
2017-12-14T03:52:02.538Z,0.80
2017-12-14T03:54:29.346Z,0.80
2017-12-14T03:56:56.222Z,1.23
2017-12-14T03:59:23.149Z,0.90
2017-12-14T04:01:50.095Z,1.13
2017-12-14T04:04:17.976Z,1.07
2017-12-14T04:06:44.813Z,1.10
2017-12-14T04:09:11.552Z,1.40
2017-12-14T04:11:40.072Z,1.13
2017-12-14T04:14:06.937Z,0.97
2017-12-14T04:16:33.946Z,0.80
2017-12-14T04:19:01.074Z,0.80
2017-12-14T04:21:28.013Z,1.07
2017-12-14T04:23:56.850Z,1.00
2017-12-14T04:26:23.899Z,1.00
2017-12-14T04:28:50.740Z,1.17
2017-12-14T04:31:17.550Z,0.87
2017-12-14T04:33:44.688Z,1.10
2017-12-14T04:36:12.946Z,1.13
2017-12-14T04:38:40.020Z,1.17
2017-12-14T04:41:07.938Z,0.90
2017-12-14T04:43:34.855Z,0.80
2017-12-14T04:46:01.962Z,1.10
2017-12-14T04:48:28.830Z,0.90
2017-12-14T04:50:55.738Z,1.03
2017-12-14T04:53:22.745Z,1.20
2017-12-14T04:55:49.623Z,1.80
2017-12-14T04:58:17.354Z,1.13
2017-12-14T05:00:44.374Z,0.90
2017-12-14T05:03:11.752Z,1.23
2017-12-14T05:05:38.606Z,1.00
2017-12-14T05:08:05.452Z,1.70
2017-12-14T05:10:32.258Z,1.23
2017-12-14T05:12:59.037Z,1.00
2017-12-14T05:15:25.933Z,1.23
2017-12-14T05:17:52.725Z,1.50
2017-12-14T05:20:21.178Z,1.13
2017-12-14T05:22:48.013Z,1.40
2017-12-14T05:25:15.078Z,1.33
2017-12-14T05:27:42.018Z,1.00
2017-12-14T05:30:09.002Z,1.27
2017-12-14T05:32:35.741Z,1.30
2017-12-14T05:35:05.150Z,1.17
2017-12-14T05:37:31.971Z,1.17
2017-12-14T05:39:58.878Z,1.10
2017-12-14T05:42:25.731Z,1.50
2017-12-14T05:44:52.667Z,1.40
2017-12-14T05:47:19.519Z,1.40
2017-12-14T05:49:48.599Z,1.13
2017-12-14T05:52:15.555Z,1.50
2017-12-14T05:54:42.389Z,1.80
2017-12-14T05:57:11.031Z,1.10
2017-12-14T05:59:37.889Z,1.47
2017-12-14T06:02:04.694Z,2.00
2017-12-14T06:04:31.503Z,1.67
2017-12-14T06:07:00.245Z,1.60
2017-12-14T06:09:27.058Z,1.90
2017-12-14T06:11:54.273Z,1.67
2017-12-14T06:14:21.070Z,2.03
2017-12-14T06:16:47.890Z,1.90
2017-12-14T06:19:14.655Z,1.73
2017-12-14T06:21:41.495Z,2.63
2017-12-14T06:24:08.294Z,2.10
2017-12-14T06:26:37.864Z,1.93
2017-12-14T06:29:04.687Z,1.80
2017-12-14T06:31:31.531Z,2.60
2017-12-14T06:33:58.397Z,2.00
2017-12-14T06:36:25.194Z,1.50
2017-12-14T06:38:52.080Z,1.30
2017-12-14T06:41:18.922Z,1.87
2017-12-14T06:43:45.778Z,1.93
2017-12-14T06:46:12.651Z,2.20
2017-12-14T06:48:39.491Z,1.47
2017-12-14T06:51:06.261Z,1.70
2017-12-14T06:53:33.073Z,1.83
2017-12-14T06:56:01.450Z,1.47
2017-12-14T06:58:28.280Z,1.53
2017-12-14T07:00:55.036Z,1.57
2017-12-14T07:03:26.658Z,2.00
2017-12-14T07:05:53.484Z,2.10
2017-12-14T07:08:20.266Z,1.93
2017-12-14T07:10:47.083Z,2.17
2017-12-14T07:13:13.955Z,1.90
2017-12-14T07:15:40.751Z,2.00
2017-12-14T07:18:07.640Z,2.00
2017-12-14T07:20:34.466Z,2.70
2017-12-14T07:23:04.872Z,1.93
2017-12-14T07:25:31.674Z,2.33
2017-12-14T07:27:58.422Z,2.10
2017-12-14T07:30:25.258Z,1.90
2017-12-14T07:32:56.025Z,3.13
2017-12-14T07:35:23.073Z,2.20
2017-12-14T07:37:49.879Z,2.37
2017-12-14T07:40:16.882Z,1.83
2017-12-14T07:42:49.431Z,2.00
2017-12-14T07:45:22.190Z,2.67
2017-12-14T07:47:55.694Z,1.73
2017-12-14T07:50:24.335Z,2.13
2017-12-14T07:52:51.161Z,2.40
2017-12-14T07:55:17.908Z,1.97
2017-12-14T07:57:50.214Z,2.10
2017-12-14T08:00:16.984Z,2.17
2017-12-14T08:02:43.735Z,2.57
2017-12-14T08:05:10.460Z,2.47
2017-12-14T08:07:37.241Z,2.10
2017-12-14T08:10:04.046Z,2.30
2017-12-14T08:12:30.801Z,2.00
2017-12-14T08:14:57.574Z,2.73
2017-12-14T08:17:27.148Z,2.17
2017-12-14T08:19:53.872Z,2.30
2017-12-14T08:22:21.679Z,2.13
2017-12-14T08:24:49.313Z,2.13
2017-12-14T08:27:16.054Z,2.60
2017-12-14T08:29:46.697Z,2.23
2017-12-14T08:32:13.470Z,2.27
2017-12-14T08:34:40.296Z,2.20
2017-12-14T08:37:07.384Z,2.50
2017-12-14T08:39:34.146Z,2.13
2017-12-14T08:42:00.985Z,1.97
2017-12-14T08:44:27.738Z,2.50
2017-12-14T08:46:54.555Z,2.00
2017-12-14T08:49:21.314Z,3.10
2017-12-14T08:51:48.053Z,2.20
2017-12-14T08:54:14.858Z,2.20
2017-12-14T08:56:41.612Z,2.17
2017-12-14T08:59:08.538Z,2.57
2017-12-14T09:01:35.286Z,2.50
2017-12-14T09:04:02.052Z,2.33
2017-12-14T09:06:31.083Z,3.10
2017-12-14T09:08:57.845Z,2.30
2017-12-14T09:11:24.678Z,2.37
2017-12-14T09:13:51.494Z,2.23
2017-12-14T09:16:18.252Z,2.47
2017-12-14T09:18:45.067Z,2.53
2017-12-14T09:21:11.821Z,2.50
2017-12-14T09:23:45.222Z,3.17
2017-12-14T09:26:12.009Z,2.23
2017-12-14T09:28:39.218Z,2.40
2017-12-14T09:31:06.001Z,2.30
2017-12-14T09:33:32.750Z,2.00
2017-12-14T09:36:00.447Z,2.20
2017-12-14T09:38:27.251Z,2.00
2017-12-14T09:40:56.576Z,2.20
2017-12-14T09:43:23.320Z,2.40
2017-12-14T09:45:50.077Z,2.20
2017-12-14T09:48:16.852Z,2.17
2017-12-14T09:50:45.297Z,2.50
2017-12-14T09:53:12.050Z,2.37
2017-12-14T09:55:38.783Z,2.33
2017-12-14T09:58:05.561Z,2.10
2017-12-14T10:00:34.235Z,2.00
2017-12-14T10:03:01.812Z,1.87
2017-12-14T10:05:28.586Z,2.43
2017-12-14T10:07:55.394Z,2.37
2017-12-14T10:10:22.142Z,2.30
2017-12-14T10:12:48.896Z,1.63
2017-12-14T10:15:15.716Z,2.43
2017-12-14T10:17:42.464Z,2.20
2017-12-14T10:20:10.052Z,1.60
2017-12-14T10:22:36.815Z,2.50
2017-12-14T10:25:03.567Z,2.17
2017-12-14T10:27:30.328Z,2.30
2017-12-14T10:29:57.105Z,2.70
2017-12-14T10:32:23.834Z,1.87
2017-12-14T10:34:50.581Z,2.63
2017-12-14T10:37:17.393Z,2.50
2017-12-14T10:39:44.141Z,1.80
2017-12-14T10:42:10.957Z,2.00
2017-12-14T10:44:37.751Z,2.10
2017-12-14T10:47:04.558Z,1.70
2017-12-14T10:49:31.282Z,2.00
2017-12-14T10:51:58.057Z,2.30
2017-12-14T10:54:24.790Z,1.90
2017-12-14T10:56:51.735Z,1.97
2017-12-14T10:59:18.624Z,1.70
2017-12-14T11:01:45.444Z,2.40
2017-12-14T11:04:12.191Z,2.20
2017-12-14T11:06:38.949Z,2.50
2017-12-14T11:09:05.702Z,1.80
2017-12-14T11:11:33.451Z,2.20
2017-12-14T11:14:00.217Z,2.70
2017-12-14T11:16:26.983Z,2.20
2017-12-14T11:18:53.744Z,2.27
2017-12-14T11:21:22.177Z,2.57
2017-12-14T11:23:49.336Z,2.17
2017-12-14T11:26:16.135Z,2.03
2017-12-14T11:28:42.910Z,2.07
2017-12-14T11:31:09.762Z,2.70
2017-12-14T11:33:36.524Z,1.97
2017-12-14T11:36:03.327Z,2.90
2017-12-14T11:38:30.493Z,2.20
2017-12-14T11:40:57.961Z,2.60
2017-12-14T11:43:24.698Z,3.00
2017-12-14T11:45:51.691Z,2.33
2017-12-14T11:48:18.471Z,2.37
2017-12-14T11:50:48.089Z,2.50
2017-12-14T11:53:14.862Z,2.10
2017-12-14T11:55:41.648Z,2.40
2017-12-14T11:58:10.022Z,1.90
2017-12-14T12:00:36.790Z,2.47
2017-12-14T12:03:04.485Z,2.30
2017-12-14T12:05:31.267Z,2.53
2017-12-14T12:07:58.031Z,2.57
2017-12-14T12:10:30.465Z,2.20
2017-12-14T12:12:57.198Z,2.40
2017-12-14T12:15:23.920Z,2.20
2017-12-14T12:17:53.792Z,2.93
2017-12-14T12:20:20.546Z,2.93
2017-12-14T12:22:47.555Z,2.20
2017-12-14T12:25:16.430Z,1.70
2017-12-14T12:27:43.411Z,2.43
2017-12-14T12:30:10.586Z,2.87
2017-12-14T12:32:38.384Z,2.10
2017-12-14T12:35:05.205Z,2.63
2017-12-14T12:37:32.023Z,2.67
2017-12-14T12:39:58.826Z,1.87
2017-12-14T12:42:25.672Z,2.57
2017-12-14T12:44:52.482Z,2.00
2017-12-14T12:47:19.414Z,2.10
2017-12-14T12:49:46.866Z,1.90
2017-12-14T12:52:13.739Z,2.83
2017-12-14T12:54:40.558Z,2.17
2017-12-14T12:57:07.299Z,1.90
2017-12-14T12:59:34.065Z,2.37
2017-12-14T13:02:00.845Z,2.50
2017-12-14T13:04:29.132Z,3.10
2017-12-14T13:06:55.946Z,2.67
2017-12-14T13:09:22.721Z,2.30
2017-12-14T13:11:49.510Z,2.43
2017-12-14T13:14:16.601Z,3.00
2017-12-14T13:16:43.408Z,3.17
2017-12-14T13:19:10.153Z,2.50
2017-12-14T13:21:36.954Z,3.10
2017-12-14T13:24:06.284Z,2.23
2017-12-14T13:26:33.048Z,2.63
2017-12-14T13:29:00.663Z,2.70
2017-12-14T13:31:27.447Z,2.37
2017-12-14T13:33:55.991Z,3.40
2017-12-14T13:36:22.738Z,2.57
2017-12-14T13:38:49.609Z,2.03
2017-12-14T13:41:16.354Z,2.77
2017-12-14T13:43:43.187Z,2.40
2017-12-14T13:46:09.981Z,2.90
2017-12-14T13:48:36.797Z,3.20
2017-12-14T13:51:04.443Z,3.10
2017-12-14T13:53:33.859Z,2.13
2017-12-14T13:56:02.538Z,2.57
2017-12-14T13:58:29.391Z,3.03
2017-12-14T14:00:56.172Z,2.87
2017-12-14T14:03:25.094Z,4.50
2017-12-14T14:05:51.891Z,3.47
2017-12-14T14:08:18.675Z,2.40
2017-12-14T14:10:45.463Z,2.70
2017-12-14T14:13:14.130Z,2.70
2017-12-14T14:15:40.906Z,2.20
2017-12-14T14:18:07.778Z,1.80
2017-12-14T14:20:36.277Z,3.17
2017-12-14T14:23:03.672Z,2.30
2017-12-14T14:25:31.386Z,2.30
2017-12-14T14:27:58.260Z,1.80
2017-12-14T14:30:25.984Z,2.40
2017-12-14T14:32:54.656Z,2.00
2017-12-14T14:35:21.476Z,2.30
2017-12-14T14:37:51.160Z,2.60
2017-12-14T14:40:17.954Z,2.23
2017-12-14T14:42:44.755Z,2.63
2017-12-14T14:45:11.555Z,2.47
2017-12-14T14:47:39.108Z,2.20
2017-12-14T14:50:06.730Z,1.97
2017-12-14T14:52:33.514Z,2.40
2017-12-14T14:55:00.285Z,3.37
2017-12-14T14:57:28.817Z,3.20
2017-12-14T14:59:56.354Z,3.20
2017-12-14T15:02:23.516Z,3.23
2017-12-14T15:04:50.336Z,2.50
2017-12-14T15:07:18.889Z,2.30
2017-12-14T15:09:45.986Z,2.40
2017-12-14T15:12:13.439Z,3.07
2017-12-14T15:14:40.581Z,2.40
2017-12-14T15:17:09.623Z,2.47
2017-12-14T15:19:36.708Z,2.50
2017-12-14T15:22:03.801Z,2.87
2017-12-14T15:24:30.918Z,2.23
2017-12-14T15:27:01.852Z,2.90
2017-12-14T15:29:28.961Z,2.30
2017-12-14T15:31:56.043Z,1.77
2017-12-14T15:34:23.075Z,2.67
2017-12-14T15:36:50.771Z,2.40
2017-12-14T15:39:17.598Z,2.83
2017-12-14T15:41:44.571Z,2.57
2017-12-14T15:44:11.798Z,2.90
2017-12-14T15:46:39.618Z,2.20
2017-12-14T15:49:06.415Z,2.70
2017-12-14T15:51:33.190Z,3.33
2017-12-14T15:54:00.027Z,3.57
2017-12-14T15:56:26.885Z,2.90
2017-12-14T15:58:53.812Z,2.43
2017-12-14T16:01:20.856Z,2.60
2017-12-14T16:03:49.524Z,2.33
2017-12-14T16:06:16.492Z,2.50
2017-12-14T16:08:43.321Z,2.83
2017-12-14T16:11:10.081Z,2.83
2017-12-14T16:13:38.762Z,2.40
2017-12-14T16:16:05.614Z,2.80
2017-12-14T16:18:32.423Z,3.07
2017-12-14T16:20:59.272Z,3.10
2017-12-14T16:23:27.648Z,3.60
2017-12-14T16:25:54.425Z,4.13
2017-12-14T16:28:21.268Z,3.53
2017-12-14T16:30:49.173Z,2.77
2017-12-14T16:33:16.042Z,3.47
2017-12-14T16:35:44.651Z,3.20
2017-12-14T16:38:11.444Z,3.47
2017-12-14T16:40:38.238Z,2.77
2017-12-14T16:43:05.916Z,3.10
2017-12-14T16:45:32.678Z,3.10
2017-12-14T16:47:59.465Z,3.17
2017-12-14T16:50:30.911Z,3.50
2017-12-14T16:52:57.715Z,3.20
2017-12-14T16:55:24.524Z,3.00
2017-12-14T16:57:51.275Z,3.33
2017-12-14T17:00:18.742Z,3.70
2017-12-14T17:02:45.508Z,3.50
2017-12-14T17:05:12.291Z,2.73
2017-12-14T17:07:39.069Z,3.37
2017-12-14T17:10:05.854Z,3.47
2017-12-14T17:12:33.080Z,2.90
2017-12-14T17:14:59.930Z,3.20
2017-12-14T17:17:27.781Z,2.83
2017-12-14T17:19:54.835Z,2.87
2017-12-14T17:22:21.598Z,3.03
2017-12-14T17:24:49.173Z,2.10
2017-12-14T17:27:16.006Z,2.77
2017-12-14T17:29:42.930Z,2.40
2017-12-14T17:32:09.732Z,2.77
2017-12-14T17:34:36.572Z,2.20
2017-12-14T17:37:03.374Z,2.27
2017-12-14T17:39:30.127Z,1.87
2017-12-14T17:41:56.965Z,2.43
2017-12-14T17:44:23.733Z,1.97
2017-12-14T17:46:51.394Z,2.00
2017-12-14T17:49:18.195Z,2.40
2017-12-14T17:51:45.025Z,1.90
2017-12-14T17:54:11.842Z,2.20
2017-12-14T17:56:38.682Z,2.13
2017-12-14T17:59:05.515Z,1.67
2017-12-14T18:01:32.286Z,2.20
2017-12-14T18:03:59.210Z,2.07
2017-12-14T18:06:26.006Z,1.90
2017-12-14T18:08:53.439Z,1.83
2017-12-14T18:11:20.463Z,1.97
2017-12-14T18:13:49.414Z,2.40
2017-12-14T18:16:16.201Z,1.57
2017-12-14T18:18:43.039Z,2.00
2017-12-14T18:21:09.833Z,2.00
2017-12-14T18:23:36.630Z,1.47
2017-12-14T18:26:03.557Z,2.03
2017-12-14T18:28:30.478Z,1.80
2017-12-14T18:30:57.289Z,1.70
2017-12-14T18:33:24.036Z,1.53
2017-12-14T18:35:51.017Z,1.57
2017-12-14T18:38:18.050Z,1.20
2017-12-14T18:40:44.885Z,1.83
2017-12-14T18:43:11.660Z,1.43
2017-12-14T18:45:38.587Z,1.67
2017-12-14T18:48:05.480Z,1.10
2017-12-14T18:50:33.283Z,1.50
2017-12-14T18:53:09.735Z,1.27
2017-12-14T18:55:38.226Z,2.00
2017-12-14T18:58:05.095Z,1.80
2017-12-14T19:00:32.190Z,2.03
2017-12-14T19:02:59.121Z,1.83
2017-12-14T19:05:27.590Z,1.93
2017-12-14T19:07:56.072Z,2.23
2017-12-14T19:12:54.482Z,2.10
2017-12-14T19:15:22.030Z,2.00
2017-12-14T19:18:02.121Z,2.27
2017-12-14T19:23:06.054Z,2.50
2017-12-14T19:25:34.837Z,2.83
2017-12-14T19:30:36.123Z,2.60
2017-12-14T19:35:41.969Z,2.60
2017-12-14T19:38:10.774Z,2.37
2017-12-14T19:40:43.786Z,2.40
2017-12-14T19:56:47.410Z,2.43
2017-12-14T19:59:14.214Z,2.67
2017-12-14T20:01:41.041Z,2.30
2017-12-14T20:04:08.188Z,2.13
2017-12-14T20:06:35.030Z,2.00
2017-12-14T20:09:02.021Z,1.90
2017-12-14T20:11:28.889Z,1.63
2017-12-14T20:13:55.683Z,2.47
2017-12-14T20:16:23.194Z,2.40
2017-12-14T20:18:50.106Z,2.17
2017-12-14T20:21:16.958Z,1.97
2017-12-14T20:23:43.729Z,2.43
2017-12-14T20:26:10.883Z,1.60
2017-12-14T20:28:38.696Z,1.83
2017-12-14T20:33:38.020Z,1.60
2017-12-14T20:36:05.166Z,1.20
2017-12-14T20:38:32.275Z,1.60
2017-12-14T20:41:00.155Z,1.40
2017-12-14T20:43:27.125Z,1.37
2017-12-14T20:45:54.007Z,1.83
2017-12-14T20:48:21.634Z,1.57
2017-12-14T20:50:48.386Z,1.40
2017-12-14T20:53:15.234Z,1.37
2017-12-14T20:55:42.019Z,1.50
2017-12-14T20:58:08.799Z,1.10
2017-12-14T21:00:35.551Z,1.30
2017-12-14T21:03:02.300Z,1.40
2017-12-14T21:05:29.134Z,1.30
2017-12-14T21:07:55.887Z,1.50
2017-12-14T21:10:22.711Z,1.50
2017-12-14T21:12:49.466Z,1.87
2017-12-14T21:15:16.249Z,1.57
2017-12-14T21:17:43.008Z,1.53
2017-12-14T21:20:09.802Z,1.43
2017-12-14T21:22:36.598Z,1.90
2017-12-14T21:25:03.381Z,1.50
2017-12-14T21:27:30.175Z,1.60
2017-12-14T21:29:56.927Z,1.47
2017-12-14T21:32:24.120Z,1.10
2017-12-14T21:34:50.883Z,1.03
2017-12-14T21:37:17.695Z,1.23
2017-12-14T21:39:44.794Z,1.50
2017-12-14T21:42:12.209Z,1.10
2017-12-14T21:44:39.343Z,1.23
2017-12-14T21:47:06.102Z,1.17
2017-12-14T21:49:32.898Z,1.50
2017-12-14T21:51:59.670Z,1.30
2017-12-14T21:54:26.567Z,1.93
2017-12-14T21:56:53.474Z,1.50
2017-12-14T21:59:20.261Z,2.00
2017-12-14T22:01:47.030Z,1.60
2017-12-14T22:04:13.826Z,1.90
2017-12-14T22:06:40.575Z,1.87
2017-12-14T22:09:07.367Z,1.70
2017-12-14T22:11:34.167Z,1.60
2017-12-14T22:14:00.968Z,1.50
2017-12-14T22:16:27.769Z,1.73
2017-12-14T22:18:54.692Z,1.40
2017-12-14T22:21:21.426Z,1.67
2017-12-14T22:23:48.308Z,1.30
2017-12-14T22:26:15.109Z,1.80
2017-12-14T22:28:41.851Z,1.60
2017-12-14T22:31:08.660Z,1.50
2017-12-14T22:33:35.466Z,1.63
2017-12-14T22:36:02.321Z,1.90
2017-12-14T22:38:29.120Z,0.90
2017-12-14T22:40:56.309Z,1.20
2017-12-14T22:43:23.101Z,1.60
2017-12-14T22:45:50.322Z,1.40
2017-12-14T22:48:17.163Z,1.30
2017-12-14T22:50:43.951Z,1.17
2017-12-14T22:53:10.906Z,1.60
2017-12-14T22:55:37.673Z,1.90
2017-12-14T22:58:04.467Z,1.57
2017-12-14T23:00:31.195Z,1.90
2017-12-14T23:02:57.983Z,1.50
2017-12-14T23:05:24.796Z,1.60
2017-12-14T23:07:51.602Z,1.10
2017-12-14T23:10:18.411Z,1.40
2017-12-14T23:12:45.175Z,1.30
2017-12-14T23:15:12.320Z,1.20
2017-12-14T23:17:39.116Z,1.30
2017-12-14T23:20:05.996Z,1.23
2017-12-14T23:22:32.743Z,1.20
2017-12-14T23:24:59.581Z,1.20
2017-12-14T23:27:26.433Z,1.10
2017-12-14T23:29:53.247Z,1.13
2017-12-14T23:32:20.024Z,1.03
2017-12-14T23:34:46.845Z,1.37
2017-12-14T23:37:13.676Z,1.20
2017-12-14T23:39:40.454Z,1.33
2017-12-14T23:42:13.203Z,1.37
2017-12-14T23:44:40.034Z,1.10
2017-12-14T23:47:06.859Z,1.27
2017-12-14T23:49:33.634Z,1.27
2017-12-14T23:52:00.433Z,1.20
2017-12-14T23:54:27.250Z,1.00
2017-12-14T23:56:54.202Z,1.00
2017-12-14T23:59:21.064Z,1.23
